Big Bear Station Historical Data
Daily Summary for December 8, 2017 Units:  Both    English   Metric
« Previous Day
Next Day »
Daily Weekly Monthly Yearly Custom
  High: Low: Average:
Temperature: 50.5 °F /  10.3 °C 29.5 °F /  -1.4 °C 38.1 °F /  3.4 °C
Dew Point: 14.0 °F /  -10 °C 3.6 °F /  -15.8 °C 10.1 °F /  -12.2 °C
Humidity: 52 % 22 % 32 %
Wind Speed: 4.7 mph /  7.6 km/h - 1.2 mph /  1.9 km/h
Wind Gust: -999.0 mph /  -1607.7 km/h - -
Wind:- - SW
Pressure: 30.45 in /  1031 hPa 30.38 in /  1028.7 hPa -
Precipitation: 0.00 in /  0 mm    
Historical Graphs
 
 
Tabular Data for December 8, 2017
Time Temperature Dew Point Pressure Wind Wind Speed Wind Gust Humidity Rainfall Rate (Hourly)
00:31 34.3 °F /  1.3 °C 8.8 °F /  -12.9 °C 30.44 in /  1030.7 hPa Calm   -999.0 mph /  -1607.7 km/h 34 % 0 in /  0 mm
00:47 34.0 °F /  1.1 °C 9.2 °F /  -12.7 °C 30.44 in /  1030.7 hPa Calm   -999.0 mph /  -1607.7 km/h 35 % 0 in /  0 mm
01:02 34.5 °F /  1.4 °C 9.6 °F /  -12.4 °C 30.44 in /  1030.7 hPa Calm   -999.0 mph /  -1607.7 km/h 35 % 0 in /  0 mm
01:17 34.2 °F /  1.2 °C 9.4 °F /  -12.6 °C 30.44 in /  1030.7 hPa South 3.2 mph /  5.1 km/h -999.0 mph /  -1607.7 km/h 35 % 0 in /  0 mm
01:48 33.4 °F /  0.8 °C 8.7 °F /  -12.9 °C 30.44 in /  1030.7 hPa South 1.7 mph /  2.7 km/h -999.0 mph /  -1607.7 km/h 35 % 0 in /  0 mm
02:18 33.1 °F /  0.6 °C 8.4 °F /  -13.1 °C 30.44 in /  1030.7 hPa Calm   -999.0 mph /  -1607.7 km/h 35 % 0 in /  0 mm
02:33 32.2 °F /  0.1 °C 7.6 °F /  -13.6 °C 30.44 in /  1030.7 hPa Calm   -999.0 mph /  -1607.7 km/h 35 % 0 in /  0 mm
02:49 31.8 °F /  -0.1 °C 7.9 °F /  -13.4 °C 30.44 in /  1030.7 hPa Calm   -999.0 mph /  -1607.7 km/h 36 % 0 in /  0 mm
03:04 31.3 °F /  -0.4 °C 8.0 °F /  -13.3 °C 30.44 in /  1030.7 hPa Calm   -999.0 mph /  -1607.7 km/h 37 % 0 in /  0 mm
03:19 32.2 °F /  0.1 °C 8.2 °F /  -13.2 °C 30.43 in /  1030.4 hPa Calm   -999.0 mph /  -1607.7 km/h 36 % 0 in /  0 mm
03:34 32.0 °F /  0 °C 8.0 °F /  -13.3 °C 30.44 in /  1030.7 hPa South 2.7 mph /  4.3 km/h -999.0 mph /  -1607.7 km/h 36 % 0 in /  0 mm
03:50 32.5 °F /  0.3 °C 8.5 °F /  -13.1 °C 30.43 in /  1030.4 hPa ESE 2.2 mph /  3.5 km/h -999.0 mph /  -1607.7 km/h 36 % 0 in /  0 mm
04:05 32.9 °F /  0.5 °C 8.8 °F /  -12.9 °C 30.43 in /  1030.4 hPa SW 2.2 mph /  3.5 km/h -999.0 mph /  -1607.7 km/h 36 % 0 in /  0 mm
04:20 32.9 °F /  0.5 °C 8.8 °F /  -12.9 °C 30.43 in /  1030.4 hPa South 2.2 mph /  3.5 km/h -999.0 mph /  -1607.7 km/h 36 % 0 in /  0 mm
05:06 32.7 °F /  0.4 °C 9.3 °F /  -12.6 °C 30.43 in /  1030.4 hPa Calm   -999.0 mph /  -1607.7 km/h 37 % 0 in /  0 mm
05:21 32.7 °F /  0.4 °C 9.3 °F /  -12.6 °C 30.43 in /  1030.4 hPa Calm   -999.0 mph /  -1607.7 km/h 37 % 0 in /  0 mm
05:36 32.4 °F /  0.2 °C 9.6 °F /  -12.4 °C 30.43 in /  1030.4 hPa Calm   -999.0 mph /  -1607.7 km/h 38 % 0 in /  0 mm
05:51 32.4 °F /  0.2 °C 9.6 °F /  -12.4 °C 30.43 in /  1030.4 hPa Calm   -999.0 mph /  -1607.7 km/h 38 % 0 in /  0 mm
06:07 31.5 °F /  -0.3 °C 9.4 °F /  -12.6 °C 30.44 in /  1030.7 hPa Calm   -999.0 mph /  -1607.7 km/h 39 % 0 in /  0 mm
06:22 31.1 °F /  -0.5 °C 12.2 °F /  -11 °C 30.44 in /  1030.7 hPa Calm   -999.0 mph /  -1607.7 km/h 45 % 0 in /  0 mm
06:37 30.6 °F /  -0.8 °C 13.2 °F /  -10.4 °C 30.44 in /  1030.7 hPa Calm   -999.0 mph /  -1607.7 km/h 48 % 0 in /  0 mm
07:24 29.5 °F /  -1.4 °C 14.0 °F /  -10 °C 30.45 in /  1031 hPa Calm   -999.0 mph /  -1607.7 km/h 52 % 0 in /  0 mm
07:39 29.7 °F /  -1.3 °C 13.8 °F /  -10.1 °C 30.45 in /  1031 hPa Calm   -999.0 mph /  -1607.7 km/h 51 % 0 in /  0 mm
07:54 30.7 °F /  -0.7 °C 12.8 °F /  -10.7 °C 30.45 in /  1031 hPa Calm   -999.0 mph /  -1607.7 km/h 47 % 0 in /  0 mm
08:09 32.9 °F /  0.5 °C 13.4 °F /  -10.3 °C 30.45 in /  1031 hPa NNW 1.1 mph /  1.8 km/h -999.0 mph /  -1607.7 km/h 44 % 0 in /  0 mm
08:25 35.6 °F /  2 °C 13.1 °F /  -10.5 °C 30.45 in /  1031 hPa NE 2.2 mph /  3.5 km/h -999.0 mph /  -1607.7 km/h 39 % 0 in /  0 mm
08:40 37.4 °F /  3 °C 13.5 °F /  -10.3 °C 30.45 in /  1031 hPa Calm   -999.0 mph /  -1607.7 km/h 37 % 0 in /  0 mm
08:55 39.2 °F /  4 °C 13.2 °F /  -10.4 °C 30.45 in /  1031 hPa West 2.2 mph /  3.5 km/h -999.0 mph /  -1607.7 km/h 34 % 0 in /  0 mm
09:10 41.2 °F /  5.1 °C 13.5 °F /  -10.3 °C 30.45 in /  1031 hPa NE 2.7 mph /  4.3 km/h -999.0 mph /  -1607.7 km/h 32 % 0 in /  0 mm
09:41 43.3 °F /  6.3 °C 13.9 °F /  -10.1 °C 30.45 in /  1031 hPa NNW 2.7 mph /  4.3 km/h -999.0 mph /  -1607.7 km/h 30 % 0 in /  0 mm
10:11 45.0 °F /  7.2 °C 13.8 °F /  -10.1 °C 30.44 in /  1030.7 hPa NW 3.7 mph /  6 km/h -999.0 mph /  -1607.7 km/h 28 % 0 in /  0 mm
10:42 46.8 °F /  8.2 °C 13.7 °F /  -10.2 °C 30.44 in /  1030.7 hPa WNW 3.2 mph /  5.1 km/h -999.0 mph /  -1607.7 km/h 26 % 0 in /  0 mm
11:13 48.6 °F /  9.2 °C 13.4 °F /  -10.3 °C 30.43 in /  1030.4 hPa North 1.7 mph /  2.7 km/h -999.0 mph /  -1607.7 km/h 24 % 0 in /  0 mm
11:28 48.6 °F /  9.2 °C 13.4 °F /  -10.3 °C 30.42 in /  1030 hPa NNW 4.7 mph /  7.6 km/h -999.0 mph /  -1607.7 km/h 24 % 0 in /  0 mm
11:43 49.3 °F /  9.6 °C 13.0 °F /  -10.6 °C 30.42 in /  1030 hPa NW 4.7 mph /  7.6 km/h -999.0 mph /  -1607.7 km/h 23 % 0 in /  0 mm
11:58 50.5 °F /  10.3 °C 13.0 °F /  -10.6 °C 30.42 in /  1030 hPa Calm   -999.0 mph /  -1607.7 km/h 22 % 0 in /  0 mm
12:29 50.0 °F /  10 °C 12.6 °F /  -10.8 °C 30.41 in /  1029.7 hPa NW 3.7 mph /  6 km/h -999.0 mph /  -1607.7 km/h 22 % 0 in /  0 mm
12:44 50.4 °F /  10.2 °C 12.9 °F /  -10.6 °C 30.41 in /  1029.7 hPa ENE 2.2 mph /  3.5 km/h -999.0 mph /  -1607.7 km/h 22 % 0 in /  0 mm
12:59 49.6 °F /  9.8 °C 12.3 °F /  -10.9 °C 30.41 in /  1029.7 hPa Calm   -999.0 mph /  -1607.7 km/h 22 % 0 in /  0 mm
13:30 48.7 °F /  9.3 °C 12.5 °F /  -10.8 °C 30.40 in /  1029.3 hPa ESE 1.7 mph /  2.7 km/h -999.0 mph /  -1607.7 km/h 23 % 0 in /  0 mm
13:45 48.7 °F /  9.3 °C 12.5 °F /  -10.8 °C 30.39 in /  1029 hPa WNW 1.7 mph /  2.7 km/h -999.0 mph /  -1607.7 km/h 23 % 0 in /  0 mm
14:00 48.2 °F /  9 °C 12.1 °F /  -11.1 °C 30.39 in /  1029 hPa NW 2.7 mph /  4.3 km/h -999.0 mph /  -1607.7 km/h 23 % 0 in /  0 mm
14:15 47.7 °F /  8.7 °C 12.6 °F /  -10.8 °C 30.39 in /  1029 hPa ESE 2.2 mph /  3.5 km/h -999.0 mph /  -1607.7 km/h 24 % 0 in /  0 mm
14:31 47.3 °F /  8.5 °C 13.2 °F /  -10.4 °C 30.39 in /  1029 hPa NW 4.2 mph /  6.8 km/h -999.0 mph /  -1607.7 km/h 25 % 0 in /  0 mm
14:46 46.9 °F /  8.3 °C 11.9 °F /  -11.2 °C 30.39 in /  1029 hPa SSE 1.7 mph /  2.7 km/h -999.0 mph /  -1607.7 km/h 24 % 0 in /  0 mm
15:01 46.6 °F /  8.1 °C 12.6 °F /  -10.8 °C 30.39 in /  1029 hPa North 1.7 mph /  2.7 km/h -999.0 mph /  -1607.7 km/h 25 % 0 in /  0 mm
15:17 45.7 °F /  7.6 °C 11.8 °F /  -11.2 °C 30.39 in /  1029 hPa Calm   -999.0 mph /  -1607.7 km/h 25 % 0 in /  0 mm
15:32 45.3 °F /  7.4 °C 12.4 °F /  -10.9 °C 30.39 in /  1029 hPa North 1.7 mph /  2.7 km/h -999.0 mph /  -1607.7 km/h 26 % 0 in /  0 mm
15:47 44.4 °F /  6.9 °C 11.6 °F /  -11.3 °C 30.39 in /  1029 hPa Calm   -999.0 mph /  -1607.7 km/h 26 % 0 in /  0 mm
16:02 43.5 °F /  6.4 °C 11.7 °F /  -11.3 °C 30.39 in /  1029 hPa Calm   -999.0 mph /  -1607.7 km/h 27 % 0 in /  0 mm
16:33 41.0 °F /  5 °C 9.5 °F /  -12.5 °C 30.39 in /  1029 hPa Calm   -999.0 mph /  -1607.7 km/h 27 % 0 in /  0 mm
16:48 39.7 °F /  4.3 °C 10.0 °F /  -12.2 °C 30.39 in /  1029 hPa Calm   -999.0 mph /  -1607.7 km/h 29 % 0 in /  0 mm
17:03 38.7 °F /  3.7 °C 10.6 °F /  -11.9 °C 30.39 in /  1029 hPa South 2.2 mph /  3.5 km/h -999.0 mph /  -1607.7 km/h 31 % 0 in /  0 mm
17:18 38.3 °F /  3.5 °C 10.3 °F /  -12.1 °C 30.39 in /  1029 hPa Calm   -999.0 mph /  -1607.7 km/h 31 % 0 in /  0 mm
17:34 37.2 °F /  2.9 °C 9.3 °F /  -12.6 °C 30.38 in /  1028.7 hPa SSE 2.2 mph /  3.5 km/h -999.0 mph /  -1607.7 km/h 31 % 0 in /  0 mm
17:49 37.0 °F /  2.8 °C 8.4 °F /  -13.1 °C 30.39 in /  1029 hPa SSE 2.2 mph /  3.5 km/h -999.0 mph /  -1607.7 km/h 30 % 0 in /  0 mm
18:04 37.8 °F /  3.2 °C 7.6 °F /  -13.6 °C 30.39 in /  1029 hPa SSE 2.2 mph /  3.5 km/h -999.0 mph /  -1607.7 km/h 28 % 0 in /  0 mm
18:20 37.4 °F /  3 °C 6.4 °F /  -14.2 °C 30.39 in /  1029 hPa SSE 1.7 mph /  2.7 km/h -999.0 mph /  -1607.7 km/h 27 % 0 in /  0 mm
18:35 36.5 °F /  2.5 °C 5.6 °F /  -14.7 °C 30.40 in /  1029.3 hPa Calm   -999.0 mph /  -1607.7 km/h 27 % 0 in /  0 mm
18:50 36.0 °F /  2.2 °C 5.2 °F /  -14.9 °C 30.40 in /  1029.3 hPa South 1.1 mph /  1.8 km/h -999.0 mph /  -1607.7 km/h 27 % 0 in /  0 mm
19:36 35.1 °F /  1.7 °C 3.6 °F /  -15.8 °C 30.40 in /  1029.3 hPa South 2.2 mph /  3.5 km/h -999.0 mph /  -1607.7 km/h 26 % 0 in /  0 mm
19:51 34.9 °F /  1.6 °C 6.6 °F /  -14.1 °C 30.40 in /  1029.3 hPa Calm   -999.0 mph /  -1607.7 km/h 30 % 0 in /  0 mm
20:06 34.2 °F /  1.2 °C 6.0 °F /  -14.4 °C 30.40 in /  1029.3 hPa Calm   -999.0 mph /  -1607.7 km/h 30 % 0 in /  0 mm
20:52 33.4 °F /  0.8 °C 4.5 °F /  -15.3 °C 30.40 in /  1029.3 hPa Calm   -999.0 mph /  -1607.7 km/h 29 % 0 in /  0 mm
21:07 33.1 °F /  0.6 °C 6.4 °F /  -14.2 °C 30.41 in /  1029.7 hPa Calm   -999.0 mph /  -1607.7 km/h 32 % 0 in /  0 mm
21:22 32.4 °F /  0.2 °C 6.5 °F /  -14.2 °C 30.41 in /  1029.7 hPa Calm   -999.0 mph /  -1607.7 km/h 33 % 0 in /  0 mm
21:53 33.6 °F /  0.9 °C 7.5 °F /  -13.6 °C 30.40 in /  1029.3 hPa South 2.2 mph /  3.5 km/h -999.0 mph /  -1607.7 km/h 33 % 0 in /  0 mm
22:08 34.2 °F /  1.2 °C 6.7 °F /  -14.1 °C 30.40 in /  1029.3 hPa South 1.7 mph /  2.7 km/h -999.0 mph /  -1607.7 km/h 31 % 0 in /  0 mm
22:23 34.5 °F /  1.4 °C 6.2 °F /  -14.3 °C 30.41 in /  1029.7 hPa South 2.2 mph /  3.5 km/h -999.0 mph /  -1607.7 km/h 30 % 0 in /  0 mm
23:09 33.4 °F /  0.8 °C 6.0 °F /  -14.4 °C 30.41 in /  1029.7 hPa Calm   -999.0 mph /  -1607.7 km/h 31 % 0 in /  0 mm
23:24 33.3 °F /  0.7 °C 6.6 °F /  -14.1 °C 30.41 in /  1029.7 hPa South 1.7 mph /  2.7 km/h -999.0 mph /  -1607.7 km/h 32 % 0 in /  0 mm
Big Bear CA Weather
Compliments of Weather Underground - 1.25 mb